Time;durP1;ratioP1;P1;durP2;ratioP2;P2;SDS_P1;SDS_P2;PMS_P1;PMS_P2;Temp;Humidity;BMP_temperature;BMP_pressure;BME280_temperature;BME280_humidity;BME280_pressure;Samples;Min_cycle;Max_cycle;Signal;HPM_P1;HPM_P2
2021/12/13 00:00:47;;;;;;;4.65;4.20;;;4.10;99.90;;;;;;5132717;27;20199;-83
2021/12/13 00:03:23;;;;;;;4.35;3.95;;;4.20;99.90;;;;;;5133778;27;20199;-83
2021/12/13 00:05:59;;;;;;;5.35;4.68;;;4.20;99.90;;;;;;5133911;27;20219;-83
2021/12/13 00:08:31;;;;;;;3.75;3.45;;;4.20;99.90;;;;;;5133213;27;20222;-83
2021/12/13 00:11:07;;;;;;;4.57;4.18;;;4.20;99.90;;;;;;5133599;27;20203;-83
2021/12/13 00:13:40;;;;;;;4.28;3.80;;;4.20;99.90;;;;;;5134028;27;20199;-83
2021/12/13 00:16:10;;;;;;;5.78;4.28;;;4.20;99.90;;;;;;5133656;27;20219;-83
2021/12/13 00:18:44;;;;;;;3.70;3.40;;;4.20;99.90;;;;;;5133169;27;20195;-83
2021/12/13 00:21:22;;;;;;;3.58;3.30;;;4.20;99.90;;;;;;5133497;27;20210;-83
2021/12/13 00:23:54;;;;;;;3.75;3.45;;;4.30;99.90;;;;;;5133685;27;20248;-83
2021/12/13 00:26:28;;;;;;;3.92;3.55;;;4.30;99.90;;;;;;5133257;27;20219;-83
2021/12/13 00:28:57;;;;;;;5.47;4.57;;;4.30;99.90;;;;;;5132780;27;20222;-83
2021/12/13 00:31:44;;;;;;;4.30;3.38;;;4.30;99.90;;;;;;5133775;27;20230;-83
2021/12/13 00:34:23;;;;;;;4.32;3.92;;;4.30;99.90;;;;;;5133783;27;20272;-83
2021/12/13 00:36:58;;;;;;;4.20;3.80;;;4.30;99.90;;;;;;5133955;27;20214;-84
2021/12/13 00:39:31;;;;;;;4.07;2.92;;;4.30;99.90;;;;;;5132775;27;20233;-83
2021/12/13 00:42:03;;;;;;;3.92;3.63;;;4.30;99.90;;;;;;5133176;27;20238;-84
2021/12/13 00:44:35;;;;;;;3.35;3.13;;;4.30;99.90;;;;;;5133353;28;20206;-83
2021/12/13 00:47:08;;;;;;;4.05;3.63;;;4.30;99.90;;;;;;5133384;28;20279;-83
2021/12/13 00:49:41;;;;;;;4.68;3.90;;;4.30;99.90;;;;;;5132842;28;20211;-83
2021/12/13 00:52:16;;;;;;;3.42;3.15;;;4.30;99.90;;;;;;5133732;28;20222;-83
2021/12/13 00:54:46;;;;;;;5.47;3.67;;;4.40;99.90;;;;;;5133433;28;20252;-83
2021/12/13 00:57:49;;;;;;;3.40;3.10;;;4.40;99.90;;;;;;5133224;28;20222;-83
2021/12/13 01:00:24;;;;;;;3.60;3.30;;;4.40;99.90;;;;;;5132258;28;20298;-83
2021/12/13 01:02:58;;;;;;;4.03;3.70;;;4.40;99.90;;;;;;5133658;28;20285;-83
2021/12/13 01:05:41;;;;;;;3.92;3.63;;;4.40;99.90;;;;;;5133733;28;20203;-83
2021/12/13 01:08:17;;;;;;;4.22;3.83;;;4.40;99.90;;;;;;5133055;28;20261;-84
2021/12/13 01:11:17;;;;;;;3.97;3.38;;;4.40;99.90;;;;;;5133939;28;20202;-87
2021/12/13 01:14:01;;;;;;;3.80;3.42;;;4.50;99.90;;;;;;5133788;27;20202;-83
2021/12/13 01:16:49;;;;;;;4.22;3.75;;;4.50;99.90;;;;;;5133150;28;20225;-83
2021/12/13 01:19:35;;;;;;;3.35;3.03;;;4.50;99.90;;;;;;5133322;27;20187;-83
2021/12/13 01:22:43;;;;;;;4.53;3.83;;;4.50;99.90;;;;;;5133152;28;20235;-83
2021/12/13 01:25:43;;;;;;;4.47;4.07;;;4.50;99.90;;;;;;5133271;27;20290;-83
2021/12/13 01:28:17;;;;;;;3.40;3.10;;;4.50;99.90;;;;;;5133120;27;20309;-83
2021/12/13 01:30:50;;;;;;;4.15;3.80;;;4.50;99.90;;;;;;5133038;28;20222;-83
2021/12/13 01:33:20;;;;;;;7.80;3.70;;;4.60;99.90;;;;;;5133223;27;20206;-83
2021/12/13 01:35:52;;;;;;;4.65;4.05;;;4.60;99.90;;;;;;5133054;28;20314;-83
2021/12/13 01:38:32;;;;;;;4.15;3.75;;;4.60;99.90;;;;;;5133919;28;20199;-83
2021/12/13 01:41:08;;;;;;;3.95;3.65;;;4.50;99.90;;;;;;5132745;28;20215;-83
2021/12/13 01:43:39;;;;;;;4.97;3.85;;;4.60;99.90;;;;;;5133191;28;20205;-83
2021/12/13 01:46:08;;;;;;;4.82;4.15;;;4.60;99.90;;;;;;5132928;28;20219;-83
2021/12/13 01:48:40;;;;;;;4.32;4.03;;;4.60;99.90;;;;;;5132983;27;20223;-83
2021/12/13 01:51:12;;;;;;;4.70;4.18;;;4.60;99.90;;;;;;5136465;27;20206;-83
2021/12/13 01:53:46;;;;;;;3.70;3.40;;;4.60;99.90;;;;;;5136535;27;20207;-83
2021/12/13 01:56:39;;;;;;;5.00;4.40;;;4.60;99.90;;;;;;5136496;27;20250;-83
2021/12/13 01:59:28;;;;;;;4.13;3.72;;;4.60;99.90;;;;;;5136296;27;20286;-83
2021/12/13 02:02:00;;;;;;;3.55;3.25;;;4.60;99.90;;;;;;5136879;27;20226;-83
2021/12/13 02:04:29;;;;;;;3.88;3.45;;;4.60;99.90;;;;;;5136005;27;20232;-86
2021/12/13 02:07:02;;;;;;;4.22;3.90;;;4.60;99.90;;;;;;5135728;27;20287;-88
2021/12/13 02:09:34;;;;;;;5.55;3.28;;;4.60;99.90;;;;;;5136052;27;20215;-88
2021/12/13 02:12:10;;;;;;;5.15;4.03;;;4.60;99.90;;;;;;5136876;27;20207;-88
2021/12/13 02:14:47;;;;;;;4.43;4.03;;;4.60;99.90;;;;;;5136298;27;20298;-88
2021/12/13 02:17:18;;;;;;;4.60;4.20;;;4.60;99.90;;;;;;5136054;27;20313;-88
2021/12/13 02:19:52;;;;;;;3.08;2.85;;;4.60;99.90;;;;;;5136012;27;20199;-88
2021/12/13 02:22:41;;;;;;;4.40;4.00;;;4.60;99.90;;;;;;5136459;27;20206;-88
2021/12/13 02:25:23;;;;;;;3.92;3.53;;;4.60;99.90;;;;;;5136129;27;20272;-85
2021/12/13 02:27:56;;;;;;;4.38;3.45;;;4.60;99.90;;;;;;5136193;27;20207;-83
2021/12/13 02:30:35;;;;;;;4.45;4.05;;;4.60;99.90;;;;;;5135573;27;20295;-83
2021/12/13 02:33:07;;;;;;;6.53;4.30;;;4.60;99.90;;;;;;5136018;27;20222;-83
2021/12/13 02:35:39;;;;;;;4.47;4.05;;;4.60;99.90;;;;;;5135683;27;20294;-87
2021/12/13 02:38:13;;;;;;;3.78;3.50;;;4.50;99.90;;;;;;5135658;27;20222;-87
2021/12/13 02:40:42;;;;;;;2.92;2.67;;;4.60;99.90;;;;;;5135330;27;20203;-87
2021/12/13 02:43:14;;;;;;;4.63;3.35;;;4.60;99.90;;;;;;5135812;27;20260;-87
2021/12/13 02:45:47;;;;;;;4.20;3.35;;;4.60;99.90;;;;;;5135456;27;20290;-87
2021/12/13 02:48:19;;;;;;;2.63;2.42;;;4.60;99.90;;;;;;5136529;27;20227;-87
2021/12/13 02:50:53;;;;;;;3.00;2.80;;;4.60;99.90;;;;;;5137384;27;20203;-87
2021/12/13 02:53:30;;;;;;;3.35;3.05;;;4.60;99.90;;;;;;5140168;27;20237;-89
2021/12/13 02:55:58;;;;;;;2.97;2.78;;;4.50;99.90;;;;;;5139686;27;20253;-88
2021/12/13 02:58:30;;;;;;;3.60;3.30;;;4.50;99.90;;;;;;5136860;27;20247;-89
2021/12/13 03:01:02;;;;;;;2.63;2.42;;;4.50;99.90;;;;;;5135235;27;20233;-89
2021/12/13 03:03:35;;;;;;;2.75;2.55;;;4.50;99.90;;;;;;5135702;27;20211;-89
2021/12/13 03:06:07;;;;;;;2.10;2.00;;;4.50;99.90;;;;;;5134998;27;20247;-89
2021/12/13 03:08:40;;;;;;;2.40;2.20;;;4.50;99.90;;;;;;5135395;27;20223;-85
2021/12/13 03:11:23;;;;;;;3.25;2.88;;;4.50;99.90;;;;;;5135392;27;20214;-86
2021/12/13 03:13:56;;;;;;;1.98;1.88;;;4.40;99.90;;;;;;5135299;27;20230;-86
2021/12/13 03:16:29;;;;;;;2.30;2.20;;;4.40;99.90;;;;;;5135168;27;20227;-85
2021/12/13 03:19:04;;;;;;;2.10;2.00;;;4.40;99.90;;;;;;5134904;27;20207;-83
2021/12/13 03:22:08;;;;;;;1.95;1.85;;;4.40;99.90;;;;;;5135195;27;20207;-84
2021/12/13 03:25:02;;;;;;;2.75;2.53;;;4.30;99.90;;;;;;5124976;27;20257;-84
2021/12/13 03:27:38;;;;;;;2.38;2.22;;;4.30;99.90;;;;;;5134509;27;20238;-83
2021/12/13 03:30:11;;;;;;;1.95;1.85;;;4.20;99.90;;;;;;5134038;27;20219;-84
2021/12/13 03:32:43;;;;;;;2.28;2.08;;;4.20;99.90;;;;;;5134680;27;20256;-84
2021/12/13 03:35:18;;;;;;;2.00;1.90;;;4.20;99.90;;;;;;5135300;27;20255;-84
2021/12/13 03:37:57;;;;;;;1.92;1.83;;;4.10;99.90;;;;;;5134659;27;20271;-83
2021/12/13 03:40:28;;;;;;;1.55;1.45;;;4.10;99.90;;;;;;5134408;27;20259;-83
2021/12/13 03:43:00;;;;;;;1.33;1.33;;;4.00;99.90;;;;;;5134406;27;20230;-84
2021/12/13 03:45:32;;;;;;;1.60;1.50;;;4.00;99.90;;;;;;5134481;27;20203;-84
2021/12/13 03:48:01;;;;;;;1.60;1.50;;;4.00;99.90;;;;;;5134199;27;20211;-86
2021/12/13 03:50:34;;;;;;;1.42;1.33;;;4.00;99.90;;;;;;5133968;27;20310;-85
2021/12/13 03:53:08;;;;;;;1.75;1.65;;;4.00;99.90;;;;;;5134814;27;20286;-86
2021/12/13 03:55:40;;;;;;;2.63;1.75;;;3.90;99.90;;;;;;5134352;27;20233;-85
2021/12/13 03:58:11;;;;;;;1.40;1.30;;;3.90;99.90;;;;;;5134161;27;20234;-85
2021/12/13 04:00:44;;;;;;;1.45;1.35;;;3.90;99.90;;;;;;5132896;27;20223;-85
2021/12/13 04:03:16;;;;;;;1.60;1.50;;;3.90;99.90;;;;;;5134387;27;20206;-84
2021/12/13 04:05:46;;;;;;;1.10;1.10;;;3.90;99.90;;;;;;5134334;27;20242;-84
2021/12/13 04:08:17;;;;;;;1.30;1.30;;;3.90;99.90;;;;;;5134289;27;20223;-84
2021/12/13 04:10:51;;;;;;;1.10;1.10;;;3.90;99.90;;;;;;5133060;27;20287;-84
2021/12/13 04:13:24;;;;;;;1.38;1.30;;;3.90;99.90;;;;;;5133885;27;20264;-84
2021/12/13 04:16:04;;;;;;;1.10;1.10;;;3.90;99.90;;;;;;5133959;27;20306;-84
2021/12/13 04:19:06;;;;;;;1.38;1.33;;;3.90;99.90;;;;;;5133983;27;20208;-84
2021/12/13 04:21:47;;;;;;;1.50;1.42;;;3.90;99.90;;;;;;5133820;27;20235;-84
2021/12/13 04:24:19;;;;;;;0.98;0.98;;;3.90;99.90;;;;;;5132480;27;20297;-84
2021/12/13 04:26:52;;;;;;;1.10;1.10;;;3.90;99.90;;;;;;5133385;27;20286;-84
2021/12/13 04:29:25;;;;;;;1.20;1.20;;;3.90;99.90;;;;;;5132790;27;20292;-84
2021/12/13 04:31:56;;;;;;;1.10;1.10;;;4.00;99.90;;;;;;5133862;27;20203;-84
2021/12/13 04:34:27;;;;;;;1.40;1.30;;;3.90;99.90;;;;;;5134122;27;20195;-84
2021/12/13 04:37:14;;;;;;;1.77;1.67;;;4.00;99.90;;;;;;5133690;27;20242;-84
2021/12/13 04:39:45;;;;;;;1.35;1.35;;;3.90;99.90;;;;;;5133218;27;20199;-86
2021/12/13 04:42:21;;;;;;;1.52;1.45;;;4.00;99.90;;;;;;5133569;27;20211;-86
2021/12/13 04:44:55;;;;;;;1.65;1.45;;;4.00;99.90;;;;;;5133799;28;20231;-85
2021/12/13 04:47:27;;;;;;;1.60;1.50;;;4.00;99.90;;;;;;5134072;28;20250;-86
2021/12/13 04:50:04;;;;;;;4.53;1.83;;;4.00;99.90;;;;;;5133384;27;20225;-86
2021/12/13 04:52:34;;;;;;;1.90;1.80;;;4.00;99.90;;;;;;5133465;28;20231;-86
2021/12/13 04:55:05;;;;;;;1.40;1.30;;;4.00;99.90;;;;;;5133247;28;20226;-86
2021/12/13 04:57:36;;;;;;;1.67;1.58;;;4.00;99.90;;;;;;5133317;28;20242;-86
2021/12/13 05:00:11;;;;;;;1.63;1.55;;;4.00;99.90;;;;;;5132992;28;20198;-86
2021/12/13 05:02:44;;;;;;;6.72;2.22;;;4.10;99.90;;;;;;5133821;28;20222;-86
2021/12/13 05:05:15;;;;;;;2.05;1.95;;;4.10;99.90;;;;;;5133649;28;20287;-86
2021/12/13 05:07:46;;;;;;;2.53;1.67;;;4.10;99.90;;;;;;5133430;28;20249;-85
2021/12/13 05:10:16;;;;;;;2.15;2.05;;;4.10;99.90;;;;;;5133180;28;20262;-86
2021/12/13 05:13:00;;;;;;;1.70;1.60;;;4.10;99.90;;;;;;5133287;28;20226;-85
2021/12/13 05:15:30;;;;;;;2.00;1.90;;;4.20;99.90;;;;;;5133054;28;20236;-85
2021/12/13 05:18:05;;;;;;;1.90;1.80;;;4.20;99.90;;;;;;5133413;28;20207;-85
2021/12/13 05:20:37;;;;;;;1.60;1.50;;;4.20;99.90;;;;;;5133190;28;20230;-85
2021/12/13 05:23:08;;;;;;;1.73;1.50;;;4.20;99.90;;;;;;5133683;27;20195;-85
2021/12/13 05:25:40;;;;;;;1.20;1.20;;;4.20;99.90;;;;;;5136938;27;20207;-85
2021/12/13 05:28:15;;;;;;;1.83;1.73;;;4.20;99.90;;;;;;5137318;27;20247;-85
2021/12/13 05:30:48;;;;;;;1.70;1.60;;;4.10;99.90;;;;;;5136652;27;20317;-85
2021/12/13 05:33:20;;;;;;;1.75;1.65;;;4.20;99.90;;;;;;5137368;27;20230;-85
2021/12/13 05:35:52;;;;;;;1.65;1.55;;;4.20;99.90;;;;;;5137063;27;20225;-85
2021/12/13 05:38:28;;;;;;;2.47;2.30;;;4.20;99.90;;;;;;5137157;27;20275;-85
2021/12/13 05:40:57;;;;;;;1.95;1.80;;;4.20;99.90;;;;;;5136435;27;20225;-85
2021/12/13 05:43:34;;;;;;;1.98;1.75;;;4.20;99.90;;;;;;5136978;27;20293;-85
2021/12/13 05:46:07;;;;;;;4.03;2.63;;;4.20;99.90;;;;;;5137168;27;20223;-85
2021/12/13 05:48:44;;;;;;;1.90;1.80;;;4.20;99.90;;;;;;5136768;27;20197;-85
2021/12/13 05:51:28;;;;;;;1.63;1.52;;;4.20;99.90;;;;;;5136673;27;20230;-85
2021/12/13 05:54:02;;;;;;;1.17;1.17;;;4.20;99.90;;;;;;5137027;27;20207;-85
2021/12/13 05:56:36;;;;;;;1.23;1.23;;;4.20;99.90;;;;;;5136423;27;20249;-85
2021/12/13 05:59:20;;;;;;;1.73;1.63;;;4.20;99.90;;;;;;5135530;27;20240;-85
2021/12/13 06:02:11;;;;;;;1.73;1.63;;;4.20;99.90;;;;;;5136129;27;20233;-85
2021/12/13 06:04:45;;;;;;;3.08;1.67;;;4.20;99.90;;;;;;5136361;27;20199;-85
2021/12/13 06:07:22;;;;;;;2.03;1.92;;;4.10;99.90;;;;;;5136431;27;20250;-85
2021/12/13 06:09:56;;;;;;;1.38;1.38;;;4.20;99.90;;;;;;5136318;27;20282;-85
2021/12/13 06:12:36;;;;;;;2.03;1.92;;;4.10;99.90;;;;;;5136368;27;20210;-85
2021/12/13 06:15:28;;;;;;;1.60;1.50;;;4.10;99.90;;;;;;5136299;27;20214;-85
2021/12/13 06:18:08;;;;;;;15.02;2.40;;;4.10;99.90;;;;;;5136403;27;20238;-85
2021/12/13 06:20:42;;;;;;;5.07;2.15;;;4.10;99.90;;;;;;5136089;27;20203;-85
2021/12/13 06:23:13;;;;;;;1.92;1.83;;;4.20;99.90;;;;;;5136450;27;20202;-85
2021/12/13 06:25:44;;;;;;;2.13;1.92;;;4.20;99.90;;;;;;5135709;27;20238;-85
2021/12/13 06:28:21;;;;;;;1.90;1.80;;;4.20;99.90;;;;;;5136096;27;20294;-85
2021/12/13 06:30:56;;;;;;;3.60;2.53;;;4.20;99.90;;;;;;5135628;27;20244;-88
2021/12/13 06:33:25;;;;;;;4.15;2.20;;;4.20;99.90;;;;;;5135853;27;20266;-88
2021/12/13 06:35:58;;;;;;;1.65;1.55;;;4.20;99.90;;;;;;5135670;27;20225;-85
2021/12/13 06:38:42;;;;;;;1.85;1.75;;;4.20;99.90;;;;;;5135827;27;20233;-85
2021/12/13 06:41:17;;;;;;;1.65;1.55;;;4.20;99.90;;;;;;5136230;27;20290;-85
2021/12/13 06:43:50;;;;;;;1.80;1.70;;;4.20;99.90;;;;;;5135901;27;20218;-85
2021/12/13 06:46:43;;;;;;;1.43;1.43;;;4.20;99.90;;;;;;5135735;27;20223;-85
2021/12/13 06:49:20;;;;;;;4.28;2.35;;;4.20;99.90;;;;;;5134732;27;20199;-85
2021/12/13 06:51:53;;;;;;;1.65;1.55;;;4.20;99.90;;;;;;5135534;27;20260;-85
2021/12/13 06:54:32;;;;;;;1.92;1.83;;;4.20;99.90;;;;;;5135941;27;20207;-85
2021/12/13 06:57:05;;;;;;;1.77;1.67;;;4.20;99.90;;;;;;5135494;27;20276;-85
2021/12/13 06:59:37;;;;;;;1.85;1.75;;;4.20;99.90;;;;;;5134659;27;20248;-85
2021/12/13 07:02:14;;;;;;;2.22;2.05;;;4.30;99.90;;;;;;5134733;27;20280;-85
2021/12/13 07:05:00;;;;;;;2.33;2.13;;;4.30;99.90;;;;;;5135519;27;20206;-85
2021/12/13 07:07:32;;;;;;;3.50;2.40;;;4.30;99.90;;;;;;5135751;27;20306;-85
2021/12/13 07:10:04;;;;;;;2.53;2.13;;;4.30;99.90;;;;;;5134714;27;20195;-85
2021/12/13 07:12:32;;;;;;;2.38;2.17;;;4.30;99.90;;;;;;5134784;27;20313;-85
2021/12/13 07:15:03;;;;;;;3.05;2.72;;;4.30;99.90;;;;;;5134887;27;20203;-85
2021/12/13 07:17:35;;;;;;;2.80;2.60;;;4.30;99.90;;;;;;5135037;27;20227;-85
2021/12/13 07:20:15;;;;;;;2.35;2.25;;;4.30;99.90;;;;;;5134690;27;20195;-85
2021/12/13 07:22:44;;;;;;;3.72;3.42;;;4.30;99.90;;;;;;5134923;27;20230;-85
2021/12/13 07:25:18;;;;;;;3.33;3.13;;;4.30;99.90;;;;;;5134691;27;20207;-85
2021/12/13 07:27:51;;;;;;;3.20;3.00;;;4.30;99.90;;;;;;5134911;27;20310;-85
2021/12/13 07:30:30;;;;;;;3.70;3.40;;;4.30;99.90;;;;;;5134160;27;20199;-86
2021/12/13 07:33:23;;;;;;;3.55;3.25;;;4.30;99.90;;;;;;5134618;27;20207;-87
2021/12/13 07:39:57;;;;;;;3.55;3.25;;;4.30;99.90;;;;;;5045087;28;20205;-90
2021/12/13 07:42:26;;;;;;;3.90;3.60;;;4.30;99.90;;;;;;5051064;28;20247;-87
2021/12/13 07:44:56;;;;;;;3.13;2.92;;;4.30;99.90;;;;;;5124840;27;20199;-85
2021/12/13 07:50:48;;;;;;;4.40;3.33;;;4.40;99.90;;;;;;5068517;28;20203;-85
2021/12/13 07:53:27;;;;;;;3.20;2.92;;;4.40;99.90;;;;;;5129183;27;20195;-86
2021/12/13 07:56:11;;;;;;;5.75;4.15;;;4.40;99.90;;;;;;5132675;27;20215;-86
2021/12/13 07:58:46;;;;;;;4.13;3.47;;;4.40;99.90;;;;;;5131437;27;20198;-84
2021/12/13 08:01:21;;;;;;;3.05;2.85;;;4.40;99.90;;;;;;5131242;27;20296;-84
2021/12/13 08:03:54;;;;;;;3.42;3.13;;;4.40;99.90;;;;;;5132856;27;20230;-84
2021/12/13 08:06:28;;;;;;;2.75;2.55;;;4.40;99.90;;;;;;5134640;27;20290;-83
2021/12/13 08:09:01;;;;;;;2.85;2.65;;;4.40;99.90;;;;;;5135402;27;20195;-84
2021/12/13 08:11:38;;;;;;;2.65;2.45;;;4.40;99.90;;;;;;5120319;27;20295;-84
2021/12/13 08:14:12;;;;;;;3.25;2.95;;;4.40;99.90;;;;;;5135111;27;20214;-84
2021/12/13 08:16:45;;;;;;;2.35;2.15;;;4.40;99.90;;;;;;5134549;27;20219;-84
2021/12/13 08:19:21;;;;;;;2.88;2.40;;;4.40;99.90;;;;;;5116779;27;20191;-84
2021/12/13 08:21:56;;;;;;;1.60;1.50;;;4.40;99.90;;;;;;5114413;28;20213;-84
2021/12/13 08:25:07;;;;;;;2.05;1.85;;;4.40;99.90;;;;;;5117603;27;20226;-84
2021/12/13 08:27:41;;;;;;;1.40;1.35;;;4.50;99.90;;;;;;5134889;27;20298;-84
2021/12/13 08:30:13;;;;;;;2.05;1.80;;;4.50;99.90;;;;;;5129238;27;20233;-82
2021/12/13 08:33:01;;;;;;;1.75;1.65;;;4.50;99.90;;;;;;5134114;27;20211;-84
2021/12/13 08:35:47;;;;;;;1.88;1.77;;;4.50;99.90;;;;;;5121554;27;20211;-84
2021/12/13 08:38:29;;;;;;;1.45;1.42;;;4.50;99.90;;;;;;5117859;28;20232;-84
2021/12/13 08:41:01;;;;;;;1.17;1.17;;;4.50;99.90;;;;;;5125656;28;20227;-84
2021/12/13 08:43:36;;;;;;;1.65;1.55;;;4.60;99.90;;;;;;5114060;28;20291;-84
2021/12/13 08:46:24;;;;;;;1.17;1.17;;;4.60;99.90;;;;;;5128023;28;20238;-84
2021/12/13 08:48:53;;;;;;;2.67;1.45;;;4.70;99.90;;;;;;5127821;28;20195;-84
2021/12/13 08:51:26;;;;;;;1.52;1.42;;;4.70;99.90;;;;;;5134230;28;20210;-84
2021/12/13 08:54:09;;;;;;;1.60;1.50;;;4.70;99.90;;;;;;5134487;28;20192;-84
2021/12/13 08:56:46;;;;;;;1.17;1.17;;;4.70;99.90;;;;;;5133357;27;20222;-84
2021/12/13 08:59:23;;;;;;;1.85;1.75;;;4.70;99.90;;;;;;5136521;27;20210;-84
2021/12/13 09:01:54;;;;;;;1.27;1.27;;;4.70;99.90;;;;;;5136527;27;20218;-83
2021/12/13 09:04:33;;;;;;;1.17;1.17;;;4.70;99.90;;;;;;5137028;27;20209;-84
2021/12/13 09:07:05;;;;;;;1.42;1.38;;;4.70;99.90;;;;;;5136958;27;20271;-84
2021/12/13 09:09:41;;;;;;;1.92;1.83;;;4.70;99.90;;;;;;5137796;27;20283;-83
2021/12/13 09:12:27;;;;;;;1.52;1.45;;;4.70;99.90;;;;;;5126890;27;20214;-84
2021/12/13 09:14:57;;;;;;;1.38;1.38;;;4.80;99.90;;;;;;5137607;27;20294;-83
2021/12/13 09:17:41;;;;;;;2.10;2.00;;;4.80;99.90;;;;;;5137655;27;20238;-84
2021/12/13 09:20:24;;;;;;;2.33;2.15;;;4.80;99.90;;;;;;5136109;27;20195;-83
2021/12/13 09:22:57;;;;;;;1.70;1.60;;;4.90;99.90;;;;;;5137972;27;20260;-83
2021/12/13 09:25:37;;;;;;;1.63;1.52;;;4.90;99.90;;;;;;5137076;27;20255;-84
2021/12/13 09:28:11;;;;;;;2.08;1.98;;;4.90;99.90;;;;;;5137595;27;20233;-85
2021/12/13 09:30:46;;;;;;;2.10;1.90;;;4.90;99.90;;;;;;5137514;27;20199;-84
2021/12/13 09:33:21;;;;;;;2.03;1.92;;;5.00;99.90;;;;;;5116776;28;20238;-84
2021/12/13 09:35:57;;;;;;;2.67;2.47;;;5.00;99.90;;;;;;5117445;28;20254;-83
2021/12/13 09:38:42;;;;;;;2.15;2.05;;;5.10;99.90;;;;;;5117055;28;20206;-84
2021/12/13 09:41:47;;;;;;;2.53;2.33;;;5.20;99.90;;;;;;5116983;28;20215;-84
2021/12/13 09:44:31;;;;;;;1.27;1.25;;;5.30;99.90;;;;;;5126327;27;20251;-84
2021/12/13 09:47:15;;;;;;;1.63;1.52;;;5.30;99.90;;;;;;5136554;27;20306;-84
2021/12/13 09:50:06;;;;;;;1.70;1.60;;;5.40;99.90;;;;;;5137299;27;20218;-84
2021/12/13 09:52:38;;;;;;;1.67;1.58;;;5.50;99.90;;;;;;5137168;27;20302;-84
2021/12/13 09:55:14;;;;;;;1.65;1.55;;;5.50;99.90;;;;;;5137169;27;20203;-84
2021/12/13 09:57:57;;;;;;;1.85;1.75;;;5.60;99.90;;;;;;5136750;27;20236;-84
2021/12/13 10:00:31;;;;;;;1.75;1.65;;;5.60;99.90;;;;;;5137037;27;20237;-84
2021/12/13 10:03:13;;;;;;;1.65;1.55;;;5.60;99.90;;;;;;5129068;27;20188;-83
2021/12/13 10:05:49;;;;;;;2.22;1.83;;;5.60;99.90;;;;;;5136677;27;20207;-84
2021/12/13 10:08:20;;;;;;;1.83;1.52;;;5.60;99.90;;;;;;5137222;27;20282;-83
2021/12/13 10:10:52;;;;;;;1.55;1.45;;;5.70;99.90;;;;;;5135055;27;20227;-83
2021/12/13 10:13:25;;;;;;;1.70;1.42;;;5.70;99.90;;;;;;5136845;27;20291;-83
2021/12/13 10:15:58;;;;;;;1.48;1.38;;;5.80;99.90;;;;;;5137587;27;20283;-83
2021/12/13 10:18:31;;;;;;;1.45;1.35;;;5.80;99.90;;;;;;5132684;27;20282;-83
2021/12/13 10:21:06;;;;;;;0.95;0.95;;;5.80;99.90;;;;;;5136679;27;20302;-83
2021/12/13 10:23:38;;;;;;;2.03;1.70;;;5.80;99.90;;;;;;5124153;27;20218;-83
2021/12/13 10:26:27;;;;;;;1.45;1.35;;;5.70;99.90;;;;;;5136663;27;20211;-83
2021/12/13 10:28:59;;;;;;;1.45;1.35;;;5.70;99.90;;;;;;5135758;27;20230;-83
2021/12/13 10:31:32;;;;;;;0.85;0.85;;;5.70;99.90;;;;;;5120727;27;20200;-83
2021/12/13 10:34:04;;;;;;;1.27;1.15;;;5.60;99.90;;;;;;5130020;27;20210;-83
2021/12/13 10:36:33;;;;;;;2.08;1.63;;;5.50;99.90;;;;;;5115995;28;20224;-82
2021/12/13 10:39:13;;;;;;;1.92;1.00;;;5.60;99.90;;;;;;5124465;27;20211;-90
2021/12/13 10:42:05;;;;;;;1.30;1.20;;;5.50;99.90;;;;;;5137416;27;20199;-90
2021/12/13 10:44:38;;;;;;;1.30;1.27;;;5.50;99.90;;;;;;5137165;27;20237;-90
2021/12/13 10:47:21;;;;;;;1.48;1.38;;;5.50;99.90;;;;;;5137830;27;20248;-90
2021/12/13 10:49:53;;;;;;;1.25;1.23;;;5.50;99.90;;;;;;5115750;28;20212;-83
2021/12/13 10:52:26;;;;;;;1.33;1.20;;;5.50;99.90;;;;;;5134386;27;20275;-82
2021/12/13 10:54:57;;;;;;;1.17;1.08;;;5.50;99.90;;;;;;5136165;27;20199;-84
2021/12/13 10:57:31;;;;;;;0.90;0.90;;;5.50;99.90;;;;;;5136350;27;20219;-83
2021/12/13 11:00:00;;;;;;;1.35;1.27;;;5.60;99.90;;;;;;5124949;27;20203;-84
2021/12/13 11:05:37;;;;;;;1.42;1.30;;;5.50;99.90;;;;;;5130942;27;20596;-85
2021/12/13 11:08:11;;;;;;;4.97;1.58;;;5.60;99.90;;;;;;5111124;28;20283;-85
2021/12/13 11:10:44;;;;;;;1.13;1.13;;;5.60;99.90;;;;;;5123569;28;20225;-87
2021/12/13 11:13:25;;;;;;;1.05;1.05;;;5.60;99.90;;;;;;5110772;28;20198;-85
2021/12/13 11:15:57;;;;;;;1.60;1.50;;;5.60;99.90;;;;;;5125658;28;20247;-92
2021/12/13 11:18:32;;;;;;;1.48;1.40;;;5.50;99.90;;;;;;5114090;28;20226;-92
2021/12/13 11:21:06;;;;;;;1.77;1.67;;;5.50;99.90;;;;;;5110703;28;20204;-92
2021/12/13 11:23:35;;;;;;;1.38;1.20;;;5.50;99.90;;;;;;5111196;28;20218;-92
2021/12/13 11:26:06;;;;;;;1.52;1.42;;;5.50;99.90;;;;;;5109627;28;20307;-90
2021/12/13 11:28:38;;;;;;;1.08;1.00;;;5.40;99.90;;;;;;5110603;28;20231;-91
2021/12/13 11:31:13;;;;;;;1.40;1.30;;;5.40;99.90;;;;;;5090103;28;20227;-85
2021/12/13 11:34:32;;;;;;;1.70;1.60;;;5.40;99.90;;;;;;5103143;28;20206;-85
2021/12/13 11:37:44;;;;;;;1.67;1.58;;;5.50;99.90;;;;;;5110828;28;20216;-85
2021/12/13 11:40:41;;;;;;;1.30;1.20;;;5.50;99.90;;;;;;5111537;28;20249;-94
2021/12/13 11:43:28;;;;;;;1.10;1.10;;;5.50;99.90;;;;;;5113447;28;20196;-85
2021/12/13 11:46:46;;;;;;;1.02;1.02;;;5.50;99.90;;;;;;5101901;28;20271;-85
2021/12/13 11:49:51;;;;;;;1.25;1.25;;;5.40;99.90;;;;;;5110560;28;20294;-94
2021/12/13 11:52:59;;;;;;;1.38;1.27;;;5.40;99.90;;;;;;5110634;28;20203;-85
2021/12/13 11:55:55;;;;;;;1.38;1.27;;;5.40;99.90;;;;;;5110757;28;20207;-85
2021/12/13 11:59:03;;;;;;;0.90;0.90;;;5.30;99.90;;;;;;5110575;28;20203;-94
2021/12/13 12:02:10;;;;;;;1.40;1.30;;;5.30;99.90;;;;;;5093656;28;20207;-85
2021/12/13 12:05:27;;;;;;;1.08;1.08;;;5.30;99.90;;;;;;5116417;28;20221;-91
2021/12/13 12:08:36;;;;;;;1.83;1.73;;;5.20;99.90;;;;;;5130591;28;20302;-94
2021/12/13 12:11:37;;;;;;;0.85;0.82;;;5.20;99.90;;;;;;5111128;28;20200;-93
2021/12/13 12:14:10;;;;;;;1.50;1.40;;;5.20;99.90;;;;;;5110014;28;20200;-93
2021/12/13 12:16:42;;;;;;;1.13;1.13;;;5.20;99.90;;;;;;5097509;28;20254;-85
2021/12/13 12:19:16;;;;;;;1.00;0.95;;;5.20;99.90;;;;;;5096252;28;20264;-85
2021/12/13 12:21:52;;;;;;;1.58;1.48;;;5.20;99.90;;;;;;5095534;28;20203;-85
2021/12/13 12:24:24;;;;;;;2.25;1.30;;;5.20;99.90;;;;;;5095803;28;20316;-85
2021/12/13 12:27:03;;;;;;;1.42;1.35;;;5.20;99.90;;;;;;5096704;28;20221;-72
2021/12/13 12:29:35;;;;;;;1.10;1.10;;;5.30;99.90;;;;;;5112657;28;20203;-87
2021/12/13 12:32:10;;;;;;;1.70;1.58;;;5.30;99.90;;;;;;5107536;28;20260;-86
2021/12/13 12:34:56;;;;;;;1.40;1.30;;;5.30;99.90;;;;;;5095823;28;20187;-85
2021/12/13 12:38:00;;;;;;;1.48;1.38;;;5.30;99.90;;;;;;5095861;28;20244;-86
2021/12/13 12:40:36;;;;;;;2.13;1.30;;;5.20;99.90;;;;;;5095137;28;20204;-83
2021/12/13 12:43:08;;;;;;;0.95;0.95;;;5.20;99.90;;;;;;5095764;28;20252;-84
2021/12/13 12:45:40;;;;;;;3.83;1.70;;;5.20;99.90;;;;;;5095350;28;20215;-83
2021/12/13 12:48:28;;;;;;;1.42;1.33;;;5.20;99.90;;;;;;5095099;28;20197;-84
2021/12/13 12:51:02;;;;;;;1.10;1.10;;;5.20;99.90;;;;;;5095178;28;20274;-84
2021/12/13 12:53:44;;;;;;;11.20;2.05;;;5.20;99.90;;;;;;5094879;28;20300;-84
2021/12/13 12:56:19;;;;;;;0.90;0.90;;;5.20;99.90;;;;;;5094776;28;20216;-83
2021/12/13 12:58:52;;;;;;;1.65;1.55;;;5.20;99.90;;;;;;5095640;28;20196;-84
2021/12/13 13:01:24;;;;;;;1.13;1.10;;;5.20;99.90;;;;;;5094980;28;20215;-85
2021/12/13 13:03:54;;;;;;;1.58;1.48;;;5.20;99.90;;;;;;5102390;28;20215;-84
2021/12/13 13:06:26;;;;;;;2.13;1.92;;;5.20;99.90;;;;;;5103863;28;20221;-83
2021/12/13 13:09:10;;;;;;;1.23;1.20;;;5.20;99.90;;;;;;5083335;28;20344;-82
2021/12/13 13:11:46;;;;;;;0.95;0.95;;;5.30;99.90;;;;;;5094962;28;20226;-83
2021/12/13 13:14:18;;;;;;;1.25;1.15;;;5.20;99.90;;;;;;5094859;28;20188;-85
2021/12/13 13:16:50;;;;;;;1.40;1.20;;;5.20;99.90;;;;;;5095040;28;20220;-83
2021/12/13 13:19:30;;;;;;;1.27;1.20;;;5.20;99.90;;;;;;5094283;28;20204;-83
2021/12/13 13:22:05;;;;;;;2.88;2.47;;;5.20;99.90;;;;;;5095267;28;20223;-84
2021/12/13 13:25:05;;;;;;;1.73;1.63;;;5.20;99.90;;;;;;5091597;28;20251;-85
2021/12/13 13:27:37;;;;;;;2.95;1.80;;;5.30;99.90;;;;;;5093946;28;20227;-82
2021/12/13 13:30:09;;;;;;;1.73;1.63;;;5.30;99.90;;;;;;5093932;28;20220;-85
2021/12/13 13:32:39;;;;;;;1.70;1.60;;;5.30;99.90;;;;;;5094371;28;20283;-84
2021/12/13 13:35:08;;;;;;;2.00;1.88;;;5.30;99.90;;;;;;5096976;28;20195;-84
2021/12/13 13:37:57;;;;;;;2.38;2.17;;;5.30;99.90;;;;;;5107180;28;20188;-84
2021/12/13 13:40:29;;;;;;;2.38;2.15;;;5.30;99.90;;;;;;5113786;28;20269;-74
2021/12/13 13:43:02;;;;;;;1.77;1.67;;;5.40;99.90;;;;;;5115208;28;20204;-86
2021/12/13 13:45:34;;;;;;;2.17;1.90;;;5.30;99.90;;;;;;5114775;28;20247;-85
2021/12/13 13:48:07;;;;;;;2.15;1.75;;;5.40;99.90;;;;;;5106808;28;20193;-88
2021/12/13 13:50:39;;;;;;;1.67;1.40;;;5.30;99.90;;;;;;5094331;28;20334;-88
2021/12/13 13:53:16;;;;;;;1.80;1.70;;;5.30;99.90;;;;;;5094664;28;20287;-89
2021/12/13 13:55:49;;;;;;;1.98;1.60;;;5.30;99.90;;;;;;5094473;28;20255;-88
2021/12/13 13:58:24;;;;;;;1.42;1.33;;;5.20;99.90;;;;;;5094370;28;20247;-87
2021/12/13 14:00:56;;;;;;;2.70;1.88;;;5.20;99.90;;;;;;5093879;28;20261;-85